Terminal Aerodrome Forecast
Issued by NWS Charleston, WV

Current Version | Previous Version | Graphics & Text | Print | Product List | Glossary On
Versions: 1 2 3 4 5 6 7 8 9 10 11 12 13 14 15 16 17 18 19 20 21 22 23 24 25 26 27 28 29
000
FTUS41 KRLX 290800 AAA
TAFHTS
TAF AMD
KHTS 290900Z 2909/3006 29005KT P6SM SKC
      TEMPO 2909/2911 2SM BR
     FM291200 31004KT 5SM BR SCT040
     FM291300 32004KT P6SM SCT045=

USA.gov is the U.S. government's official web portal to all federal, state and local government web resources and services.